Estación Meteorológica Peña el Pijo (Robertgarden) [ 05/21/19 17:09:49 CEST ]

Fecha Hora Presion(HPa) Temp (°C) Humedad % Rocio (°C) Viento ( m/s) Direccion Lluvia 1Hora(mm) Lluvia 24H(mm) LLuvia Total(mm)
2018-Dec-17 01:01:36 1014.200 6.7 70 1.6         160.58
2018-Dec-17 02:04:10 1014.200 5.9 71 1.1         160.58
2018-Dec-17 03:01:51 1014.800 5.4 73 0.9         160.58
2018-Dec-17 04:02:00 1014.700 5.8 71 1.0         160.58
2018-Dec-17 05:01:44 1014.700 4.6 72 -0.0         160.58
2018-Dec-17 06:02:08 1015.000 3.8 73 -0.6         160.58
2018-Dec-17 07:01:50 1015.000 3.3 75 -0.7         160.58
2018-Dec-17 08:01:51 1016.300 1.8 77 -1.8         160.58
2018-Dec-17 09:01:41 1017.000 0.9 76 -2.9         160.58
2018-Dec-17 10:01:57 1017.400 5.3 71 0.5         160.58
2018-Dec-17 11:01:56 1017.400 10.1 51 0.4         160.58
2018-Dec-17 12:01:36 1017.000 11.6 42 -0.9         160.58
2018-Dec-17 13:01:47 1016.000 12.1 34 -3.4         160.58
2018-Dec-17 14:01:43 1015.200 13.9 32 -2.6 1.9 ENE     160.58
2018-Dec-17 15:02:03 1014.800 14.2 33 -1.9         160.58
2018-Dec-17 16:01:50 1014.800 13.1 36 -1.8         160.58
2018-Dec-17 17:01:42 1015.200 10.1 46 -1.1         160.58
2018-Dec-17 18:01:49 1015.600 6.8 54 -1.9         160.58
2018-Dec-17 19:01:41 1016.200 3.8 63 -2.6         160.58
2018-Dec-17 20:01:42 1016.600 2.2 68 -3.1         160.58
2018-Dec-17 21:01:42 1016.900 1.0 71 -3.7         160.58
2018-Dec-17 22:01:37 1016.600 0.3 74 -3.8         160.58
2018-Dec-17 23:01:45 1016.300 -0.4 77 -3.9         160.58

Temperatura Máxima:14°    Temperatura Mínima:
Presión Máxima:1017.400 Hpa    Presión Mínima:1014.200 Hpa


Volver